createdAt,value
2018-12-23T00:00:54.331Z,7.78
2018-12-23T00:01:54.556Z,7.82
2018-12-23T00:02:54.259Z,7.81
2018-12-23T00:03:54.603Z,7.82
2018-12-23T00:04:54.316Z,7.85
2018-12-23T00:05:54.366Z,7.85
2018-12-23T00:06:54.248Z,7.85
2018-12-23T00:07:54.239Z,7.86
2018-12-23T00:08:54.247Z,7.87
2018-12-23T00:09:54.389Z,7.87
2018-12-23T00:10:54.223Z,7.9
2018-12-23T00:11:54.183Z,7.93
2018-12-23T00:12:54.207Z,7.9
2018-12-23T00:13:54.171Z,7.92
2018-12-23T00:14:54.188Z,7.95
2018-12-23T00:15:54.196Z,7.93
2018-12-23T00:16:54.303Z,7.94
2018-12-23T00:17:54.247Z,7.95
2018-12-23T00:18:54.246Z,7.98
2018-12-23T00:19:54.237Z,7.99
2018-12-23T00:20:54.164Z,8.03
2018-12-23T00:21:54.232Z,8
2018-12-23T00:22:54.162Z,8.01
2018-12-23T00:23:54.184Z,8
2018-12-23T00:24:54.223Z,8.06
2018-12-23T00:25:54.355Z,8.06
2018-12-23T00:26:54.458Z,8.07
2018-12-23T00:28:59.111Z,8.07
2018-12-23T00:29:56.585Z,8.07
2018-12-23T00:30:57.016Z,8.05
2018-12-23T00:31:56.441Z,8.07
2018-12-23T00:32:56.413Z,8.06
2018-12-23T00:34:56.520Z,8.06
2018-12-23T00:36:00.012Z,8.07
2018-12-23T00:37:01.841Z,8.07
2018-12-23T00:37:56.353Z,8.09
2018-12-23T00:38:57.074Z,8.08
2018-12-23T00:39:56.790Z,8.07
2018-12-23T00:42:57.187Z,8.06
2018-12-23T00:45:15.174Z,8.07
2018-12-23T00:46:09.076Z,8.04
2018-12-23T00:47:08.818Z,8.06
2018-12-23T00:48:08.967Z,8.06
2018-12-23T00:49:08.822Z,8.04
2018-12-23T00:50:08.849Z,8.02
2018-12-23T00:51:08.974Z,8.03
2018-12-23T00:52:30.516Z,8.01
2018-12-23T00:54:13.163Z,8
2018-12-23T00:55:08.933Z,7.99
2018-12-23T00:57:08.974Z,7.96
2018-12-23T00:59:55.023Z,7.98
2018-12-23T01:00:13.269Z,7.92
2018-12-23T01:03:17.684Z,7.9
2018-12-23T01:04:08.963Z,7.88
2018-12-23T01:05:09.188Z,7.88
2018-12-23T01:06:12.786Z,7.86
2018-12-23T01:07:09.254Z,7.85
2018-12-23T01:08:14.250Z,7.85
2018-12-23T01:10:08.802Z,7.83
2018-12-23T01:11:08.845Z,7.85
2018-12-23T01:12:09.271Z,7.83
2018-12-23T01:13:10.515Z,7.83
2018-12-23T01:14:10.480Z,7.81
2018-12-23T01:15:08.970Z,7.81
2018-12-23T01:16:09.183Z,7.8
2018-12-23T01:17:09.155Z,7.78
2018-12-23T01:18:08.870Z,7.8
2018-12-23T01:19:08.760Z,7.78
2018-12-23T01:20:09.090Z,7.78
2018-12-23T01:21:10.276Z,7.76
2018-12-23T01:22:08.833Z,7.77
2018-12-23T01:23:09.067Z,7.77
2018-12-23T01:26:09.069Z,7.74
2018-12-23T01:29:21.007Z,7.73
2018-12-23T01:30:09.118Z,7.71
2018-12-23T01:31:08.733Z,7.71
2018-12-23T01:32:09.103Z,7.71
2018-12-23T01:33:08.758Z,7.72
2018-12-23T01:34:13.904Z,7.7
2018-12-23T01:35:12.938Z,7.69
2018-12-23T01:36:11.910Z,7.69
2018-12-23T01:37:08.776Z,7.69
2018-12-23T01:38:08.859Z,7.7
2018-12-23T01:39:08.969Z,7.69
2018-12-23T01:40:08.944Z,7.69
2018-12-23T01:41:08.899Z,7.69
2018-12-23T01:42:08.944Z,7.68
2018-12-23T01:43:08.895Z,7.67
2018-12-23T01:44:09.464Z,7.67
2018-12-23T01:45:09.927Z,7.69
2018-12-23T01:46:08.988Z,7.69
2018-12-23T01:47:09.014Z,7.7
2018-12-23T01:48:08.761Z,7.71
2018-12-23T01:49:08.796Z,7.69
2018-12-23T01:50:08.711Z,7.69
2018-12-23T01:51:13.038Z,7.7
2018-12-23T01:52:19.829Z,7.71
2018-12-23T01:53:08.777Z,7.69
2018-12-23T01:54:08.837Z,7.7
2018-12-23T01:55:08.731Z,7.7
2018-12-23T01:56:09.026Z,7.7
2018-12-23T01:57:08.735Z,7.7
2018-12-23T01:58:09.604Z,7.68
2018-12-23T01:59:08.798Z,7.71
2018-12-23T02:00:08.754Z,7.7
2018-12-23T02:01:11.201Z,7.68
2018-12-23T02:02:16.689Z,7.69
2018-12-23T02:03:09.349Z,7.71
2018-12-23T02:04:08.734Z,7.68
2018-12-23T02:05:08.789Z,7.71
2018-12-23T02:06:10.700Z,7.68
2018-12-23T02:07:08.723Z,7.67
2018-12-23T02:08:09.785Z,7.68
2018-12-23T02:09:08.747Z,7.68
2018-12-23T02:10:09.045Z,7.67
2018-12-23T02:11:08.731Z,7.66
2018-12-23T02:12:10.067Z,7.66
2018-12-23T02:13:09.989Z,7.68
2018-12-23T02:14:08.765Z,7.67
2018-12-23T02:15:08.908Z,7.66
2018-12-23T02:16:08.959Z,7.68
2018-12-23T02:17:08.935Z,7.67
2018-12-23T02:18:08.895Z,7.68
2018-12-23T02:19:09.574Z,7.66
2018-12-23T02:20:09.596Z,7.66
2018-12-23T02:21:08.747Z,7.65
2018-12-23T02:22:14.586Z,7.65
2018-12-23T02:23:24.517Z,7.67
2018-12-23T02:24:09.637Z,7.66
2018-12-23T02:25:08.751Z,7.68
2018-12-23T02:26:11.231Z,7.69
2018-12-23T02:27:11.464Z,7.69
2018-12-23T02:28:11.526Z,7.68
2018-12-23T02:29:15.616Z,7.67
2018-12-23T02:30:10.749Z,7.68
2018-12-23T02:31:10.935Z,7.68
2018-12-23T02:32:09.169Z,7.68
2018-12-23T02:33:08.870Z,7.68
2018-12-23T02:34:08.827Z,7.69
2018-12-23T02:35:08.876Z,7.7
2018-12-23T02:36:08.841Z,7.71
2018-12-23T02:37:08.763Z,7.72
2018-12-23T02:38:09.038Z,7.69
2018-12-23T02:39:08.933Z,7.71
2018-12-23T02:40:08.754Z,7.71
2018-12-23T02:41:08.874Z,7.7
2018-12-23T02:42:08.760Z,7.7
2018-12-23T02:43:08.772Z,7.71
2018-12-23T02:44:08.882Z,7.71
2018-12-23T02:45:08.851Z,7.71
2018-12-23T02:46:08.652Z,7.73
2018-12-23T02:47:08.923Z,7.72
2018-12-23T02:48:08.666Z,7.74
2018-12-23T02:49:09.047Z,7.7
2018-12-23T02:50:08.682Z,7.72
2018-12-23T02:51:08.691Z,7.72
2018-12-23T02:52:08.731Z,7.74
2018-12-23T02:53:08.739Z,7.72
2018-12-23T02:54:09.176Z,7.75
2018-12-23T02:55:08.474Z,7.73
2018-12-23T02:56:09.024Z,7.75
2018-12-23T02:57:08.731Z,7.75
2018-12-23T02:58:09.080Z,7.75
2018-12-23T02:59:09.037Z,7.75
2018-12-23T03:00:08.931Z,7.79
2018-12-23T03:01:09.154Z,7.77
2018-12-23T03:02:08.698Z,7.77
2018-12-23T03:03:08.910Z,7.79
2018-12-23T03:04:08.787Z,7.77
2018-12-23T03:05:08.635Z,7.77
2018-12-23T03:06:08.659Z,7.78
2018-12-23T03:07:09.063Z,7.79
2018-12-23T03:08:08.733Z,7.77
2018-12-23T03:09:09.028Z,7.79
2018-12-23T03:10:09.025Z,7.79
2018-12-23T03:11:08.925Z,7.79
2018-12-23T03:12:09.048Z,7.79
2018-12-23T03:13:08.798Z,7.82
2018-12-23T03:14:08.978Z,7.81
2018-12-23T03:15:08.654Z,7.82
2018-12-23T03:16:08.751Z,7.81
2018-12-23T03:17:08.674Z,7.82
2018-12-23T03:18:08.731Z,7.83
2018-12-23T03:19:09.032Z,7.83
2018-12-23T03:20:08.622Z,7.82
2018-12-23T03:21:08.691Z,7.84
2018-12-23T03:22:08.873Z,7.85
2018-12-23T03:23:08.600Z,7.83
2018-12-23T03:24:08.649Z,7.86
2018-12-23T03:25:08.843Z,7.85
2018-12-23T03:26:08.728Z,7.86
2018-12-23T03:27:08.621Z,7.86
2018-12-23T03:28:08.753Z,7.85
2018-12-23T03:29:08.689Z,7.87
2018-12-23T03:30:08.653Z,7.88
2018-12-23T03:31:08.741Z,7.87
2018-12-23T03:32:08.892Z,7.86
2018-12-23T03:33:08.667Z,7.88
2018-12-23T03:34:08.625Z,7.87
2018-12-23T03:35:08.655Z,7.88
2018-12-23T03:36:15.741Z,7.88
2018-12-23T03:37:08.664Z,7.9
2018-12-23T03:38:08.655Z,7.9
2018-12-23T03:39:08.659Z,7.9
2018-12-23T03:40:08.623Z,7.9
2018-12-23T03:41:08.651Z,7.89
2018-12-23T03:42:08.609Z,7.86
2018-12-23T03:43:08.659Z,7.86
2018-12-23T03:44:08.650Z,7.86
2018-12-23T03:45:08.628Z,7.87
2018-12-23T03:46:08.638Z,7.87
2018-12-23T03:47:08.870Z,7.86
2018-12-23T03:48:08.618Z,7.86
2018-12-23T03:49:09.054Z,7.88
2018-12-23T03:50:08.735Z,7.86
2018-12-23T03:51:08.623Z,7.87
2018-12-23T03:52:08.888Z,7.87
2018-12-23T03:53:09.081Z,7.86
2018-12-23T03:54:08.590Z,7.88
2018-12-23T03:55:08.788Z,7.86
2018-12-23T03:56:08.749Z,7.87
2018-12-23T03:57:08.774Z,7.85
2018-12-23T03:58:08.915Z,7.88
2018-12-23T03:59:08.844Z,7.87
2018-12-23T04:00:08.606Z,7.86
2018-12-23T04:01:08.618Z,7.85
2018-12-23T04:02:08.572Z,7.86
2018-12-23T04:03:08.623Z,7.86
2018-12-23T04:04:08.662Z,7.85
2018-12-23T04:05:08.628Z,7.85
2018-12-23T04:06:08.617Z,7.86
2018-12-23T04:07:08.657Z,7.85
2018-12-23T04:08:08.905Z,7.84
2018-12-23T04:09:08.789Z,7.87
2018-12-23T04:10:09.415Z,7.85
2018-12-23T04:11:08.704Z,7.84
2018-12-23T04:12:08.591Z,7.82
2018-12-23T04:13:08.617Z,7.82
2018-12-23T04:14:08.738Z,7.83
2018-12-23T04:15:08.942Z,7.82
2018-12-23T04:16:08.613Z,7.81
2018-12-23T04:17:08.569Z,7.83
2018-12-23T04:18:08.768Z,7.82
2018-12-23T04:19:09.389Z,7.81
2018-12-23T04:20:08.714Z,7.81
2018-12-23T04:21:08.772Z,7.8
2018-12-23T04:22:08.645Z,7.8
2018-12-23T04:23:08.667Z,7.8
2018-12-23T04:24:08.641Z,7.8
2018-12-23T04:25:08.527Z,7.81
2018-12-23T04:26:08.761Z,7.81
2018-12-23T04:27:08.596Z,7.81
2018-12-23T04:28:08.747Z,7.8
2018-12-23T04:29:08.595Z,7.8
2018-12-23T04:30:08.529Z,7.81
2018-12-23T04:31:08.620Z,7.81
2018-12-23T04:32:08.632Z,7.8
2018-12-23T04:33:08.650Z,7.79
2018-12-23T04:34:08.625Z,7.81
2018-12-23T04:35:08.601Z,7.79
2018-12-23T04:36:08.832Z,7.79
2018-12-23T04:37:08.652Z,7.8
2018-12-23T04:38:08.686Z,7.79
2018-12-23T04:39:08.677Z,7.78
2018-12-23T04:40:08.614Z,7.78
2018-12-23T04:41:08.776Z,7.78
2018-12-23T04:42:08.751Z,7.78
2018-12-23T04:43:08.675Z,7.79
2018-12-23T04:44:08.535Z,7.79
2018-12-23T04:45:09.058Z,7.77
2018-12-23T04:46:08.674Z,7.78
2018-12-23T04:47:08.650Z,7.8
2018-12-23T04:48:08.502Z,7.77
2018-12-23T04:49:08.540Z,7.77
2018-12-23T04:50:08.568Z,7.77
2018-12-23T04:51:08.694Z,7.77
2018-12-23T04:52:08.580Z,7.78
2018-12-23T04:53:09.373Z,7.78
2018-12-23T04:54:08.552Z,7.79
2018-12-23T04:55:08.789Z,7.79
2018-12-23T04:56:08.530Z,7.77
2018-12-23T04:57:08.518Z,7.77
2018-12-23T04:58:08.613Z,7.79
2018-12-23T04:59:08.536Z,7.78
2018-12-23T05:00:08.596Z,7.77
2018-12-23T05:01:08.770Z,7.77
2018-12-23T05:02:09.046Z,7.79
2018-12-23T05:03:08.605Z,7.77
2018-12-23T05:04:08.587Z,7.77
2018-12-23T05:05:08.645Z,7.77
2018-12-23T05:06:08.592Z,7.75
2018-12-23T05:07:08.504Z,7.75
2018-12-23T05:08:08.496Z,7.75
2018-12-23T05:09:08.587Z,7.75
2018-12-23T05:10:08.595Z,7.75
2018-12-23T05:11:08.907Z,7.75
2018-12-23T05:12:08.568Z,7.75
2018-12-23T05:13:08.521Z,7.75
2018-12-23T05:14:08.520Z,7.74
2018-12-23T05:15:08.526Z,7.76
2018-12-23T05:16:08.498Z,7.74
2018-12-23T05:17:08.495Z,7.74
2018-12-23T05:18:08.499Z,7.75
2018-12-23T05:19:08.470Z,7.76
2018-12-23T05:20:08.491Z,7.75
2018-12-23T05:21:08.449Z,7.75
2018-12-23T05:22:08.506Z,7.74
2018-12-23T05:23:08.548Z,7.77
2018-12-23T05:24:08.469Z,7.76
2018-12-23T05:25:08.461Z,7.76
2018-12-23T05:26:08.450Z,7.74
2018-12-23T05:27:09.152Z,7.76
2018-12-23T05:28:08.854Z,7.76
2018-12-23T05:29:08.427Z,7.76
2018-12-23T05:30:08.770Z,7.75
2018-12-23T05:31:08.435Z,7.76
2018-12-23T05:32:08.509Z,7.77
2018-12-23T05:33:08.583Z,7.78
2018-12-23T05:34:08.885Z,7.75
2018-12-23T05:35:08.668Z,7.76
2018-12-23T05:36:09.253Z,7.77
2018-12-23T05:37:08.746Z,7.74
2018-12-23T05:38:08.453Z,7.77
2018-12-23T05:39:08.655Z,7.76
2018-12-23T05:40:08.737Z,7.76
2018-12-23T05:41:09.273Z,7.76
2018-12-23T05:42:08.585Z,7.75
2018-12-23T05:43:08.622Z,7.77
2018-12-23T05:44:08.817Z,7.78
2018-12-23T05:45:08.643Z,7.75
2018-12-23T05:46:08.668Z,7.75
2018-12-23T05:47:08.505Z,7.77
2018-12-23T05:48:08.478Z,7.76
2018-12-23T05:49:08.563Z,7.75
2018-12-23T05:50:08.544Z,7.76
2018-12-23T05:51:09.794Z,7.75
2018-12-23T05:52:09.285Z,7.74
2018-12-23T05:53:08.738Z,7.73
2018-12-23T05:54:08.528Z,7.73
2018-12-23T05:55:08.579Z,7.73
2018-12-23T05:56:09.128Z,7.73
2018-12-23T05:57:08.692Z,7.74
2018-12-23T05:58:09.487Z,7.71
2018-12-23T05:59:08.682Z,7.72
2018-12-23T06:00:08.523Z,7.72
2018-12-23T06:01:08.414Z,7.72
2018-12-23T06:02:08.783Z,7.71
2018-12-23T06:03:08.465Z,7.71
2018-12-23T06:04:08.534Z,7.69
2018-12-23T06:05:08.612Z,7.7
2018-12-23T06:06:08.613Z,7.7
2018-12-23T06:07:08.590Z,7.69
2018-12-23T06:08:08.762Z,7.69
2018-12-23T06:09:08.420Z,7.71
2018-12-23T06:10:08.412Z,7.69
2018-12-23T06:11:08.547Z,7.68
2018-12-23T06:12:08.476Z,7.67
2018-12-23T06:13:09.212Z,7.67
2018-12-23T06:14:08.575Z,7.67
2018-12-23T06:15:08.533Z,7.67
2018-12-23T06:16:08.557Z,7.66
2018-12-23T06:17:08.479Z,7.68
2018-12-23T06:18:08.365Z,7.67
2018-12-23T06:19:08.841Z,7.66
2018-12-23T06:20:08.495Z,7.66
2018-12-23T06:21:08.578Z,7.65
2018-12-23T06:22:08.795Z,7.64
2018-12-23T06:23:08.416Z,7.64
2018-12-23T06:24:08.543Z,7.65
2018-12-23T06:25:08.458Z,7.63
2018-12-23T06:26:08.472Z,7.63
2018-12-23T06:27:08.601Z,7.63
2018-12-23T06:28:08.402Z,7.63
2018-12-23T06:29:08.433Z,7.63
2018-12-23T06:30:08.419Z,7.64
2018-12-23T06:31:08.609Z,7.64
2018-12-23T06:32:08.564Z,7.64
2018-12-23T06:33:08.374Z,7.63
2018-12-23T06:34:08.461Z,7.63
2018-12-23T06:35:08.558Z,7.64
2018-12-23T06:36:08.387Z,7.63
2018-12-23T06:37:10.717Z,7.63
2018-12-23T06:38:08.543Z,7.65
2018-12-23T06:39:08.637Z,7.64
2018-12-23T06:40:08.749Z,7.63
2018-12-23T06:41:08.563Z,7.64
2018-12-23T06:42:08.504Z,7.64
2018-12-23T06:43:08.529Z,7.63
2018-12-23T06:44:08.514Z,7.64
2018-12-23T06:45:08.563Z,7.63
2018-12-23T06:46:08.483Z,7.66
2018-12-23T06:47:08.388Z,7.65
2018-12-23T06:48:08.464Z,7.65
2018-12-23T06:49:08.464Z,7.66
2018-12-23T06:50:08.426Z,7.66
2018-12-23T06:51:08.429Z,7.64
2018-12-23T06:52:08.675Z,7.65
2018-12-23T06:53:08.397Z,7.66
2018-12-23T06:54:08.415Z,7.65
2018-12-23T06:55:08.359Z,7.65
2018-12-23T06:56:08.363Z,7.65
2018-12-23T06:57:08.529Z,7.64
2018-12-23T06:58:08.325Z,7.65
2018-12-23T06:59:08.391Z,7.64
2018-12-23T07:00:08.358Z,7.66
2018-12-23T07:01:08.670Z,7.64
2018-12-23T07:02:08.389Z,7.63
2018-12-23T07:03:08.338Z,7.63
2018-12-23T07:04:08.474Z,7.64
2018-12-23T07:05:08.358Z,7.63
2018-12-23T07:06:08.472Z,7.63
2018-12-23T07:07:08.411Z,7.61
2018-12-23T07:08:08.470Z,7.63
2018-12-23T07:09:08.462Z,7.62
2018-12-23T07:10:08.351Z,7.63
2018-12-23T07:11:08.862Z,7.64
2018-12-23T07:12:08.499Z,7.62
2018-12-23T07:13:08.786Z,7.62
2018-12-23T07:14:08.604Z,7.61
2018-12-23T07:15:08.430Z,7.61
2018-12-23T07:16:08.362Z,7.61
2018-12-23T07:17:08.416Z,7.62
2018-12-23T07:18:08.547Z,7.6
2018-12-23T07:19:08.423Z,7.61
2018-12-23T07:20:08.506Z,7.61
2018-12-23T07:21:08.651Z,7.6
2018-12-23T07:22:08.393Z,7.6
2018-12-23T07:23:08.483Z,7.61
2018-12-23T07:24:08.413Z,7.6
2018-12-23T07:25:08.483Z,7.6
2018-12-23T07:26:08.335Z,7.61
2018-12-23T07:27:09.093Z,7.59
2018-12-23T07:28:08.711Z,7.6
2018-12-23T07:29:08.396Z,7.59
2018-12-23T07:30:08.535Z,7.57
2018-12-23T07:31:08.517Z,7.59
2018-12-23T07:32:08.644Z,7.58
2018-12-23T07:33:08.581Z,7.58
2018-12-23T07:34:08.379Z,7.58
2018-12-23T07:35:08.510Z,7.59
2018-12-23T07:36:08.328Z,7.59
2018-12-23T07:37:08.509Z,7.59
2018-12-23T07:38:08.546Z,7.59
2018-12-23T07:39:08.649Z,7.6
2018-12-23T07:40:08.706Z,7.59
2018-12-23T07:41:08.510Z,7.59
2018-12-23T07:42:08.508Z,7.6
2018-12-23T07:43:08.557Z,7.58
2018-12-23T07:44:08.373Z,7.59
2018-12-23T07:45:08.279Z,7.59
2018-12-23T07:46:08.440Z,7.59
2018-12-23T07:47:08.349Z,7.56
2018-12-23T07:48:08.409Z,7.59
2018-12-23T07:49:08.797Z,7.6
2018-12-23T07:50:08.488Z,7.58
2018-12-23T07:51:08.297Z,7.59
2018-12-23T07:52:08.287Z,7.6
2018-12-23T07:53:08.449Z,7.58
2018-12-23T07:54:08.303Z,7.59
2018-12-23T07:55:08.362Z,7.58
2018-12-23T07:56:08.420Z,7.6
2018-12-23T07:57:08.462Z,7.6
2018-12-23T07:58:08.316Z,7.59
2018-12-23T07:59:08.318Z,7.59
2018-12-23T08:00:08.361Z,7.6
2018-12-23T08:01:08.282Z,7.6
2018-12-23T08:02:08.238Z,7.61
2018-12-23T08:03:08.415Z,7.61
2018-12-23T08:04:08.656Z,7.6
2018-12-23T08:05:08.438Z,7.6
2018-12-23T08:06:08.528Z,7.61
2018-12-23T08:07:08.340Z,7.61
2018-12-23T08:08:08.248Z,7.6
2018-12-23T08:09:08.421Z,7.6
2018-12-23T08:10:08.483Z,7.64
2018-12-23T08:11:08.866Z,7.62
2018-12-23T08:12:08.481Z,7.63
2018-12-23T08:13:08.518Z,7.63
2018-12-23T08:14:08.545Z,7.66
2018-12-23T08:15:08.368Z,7.67
2018-12-23T08:16:09.069Z,7.65
2018-12-23T08:17:08.325Z,7.66
2018-12-23T08:18:08.392Z,7.66
2018-12-23T08:19:09.071Z,7.68
2018-12-23T08:20:08.337Z,7.68
2018-12-23T08:21:08.559Z,7.68
2018-12-23T08:22:08.873Z,7.7
2018-12-23T08:23:08.338Z,7.7
2018-12-23T08:24:10.272Z,7.7
2018-12-23T08:25:08.325Z,7.71
2018-12-23T08:26:08.288Z,7.7
2018-12-23T08:27:08.247Z,7.73
2018-12-23T08:28:08.354Z,7.73
2018-12-23T08:29:08.332Z,7.74
2018-12-23T08:30:08.264Z,7.75
2018-12-23T08:31:08.256Z,7.74
2018-12-23T08:32:08.338Z,7.77
2018-12-23T08:33:08.238Z,7.76
2018-12-23T08:34:08.227Z,7.79
2018-12-23T08:35:08.293Z,7.79
2018-12-23T08:36:08.260Z,7.79
2018-12-23T08:37:12.364Z,7.79
2018-12-23T08:38:08.259Z,7.79
2018-12-23T08:39:08.425Z,7.8
2018-12-23T08:40:08.294Z,7.8
2018-12-23T08:41:08.232Z,7.8
2018-12-23T08:42:08.248Z,7.81
2018-12-23T08:43:08.218Z,7.8
2018-12-23T08:44:08.201Z,7.81
2018-12-23T08:45:08.258Z,7.8
2018-12-23T08:46:08.257Z,7.81
2018-12-23T08:47:08.380Z,7.82
2018-12-23T08:48:08.558Z,7.8
2018-12-23T08:49:08.680Z,7.81
2018-12-23T08:50:08.469Z,7.8
2018-12-23T08:51:08.289Z,7.85
2018-12-23T08:52:08.381Z,7.84
2018-12-23T08:53:09.269Z,7.82
2018-12-23T08:54:08.222Z,7.8
2018-12-23T08:55:08.912Z,7.83
2018-12-23T08:56:08.393Z,7.85
2018-12-23T08:57:08.385Z,7.84
2018-12-23T08:58:08.489Z,7.85
2018-12-23T08:59:08.386Z,7.85
2018-12-23T09:00:08.275Z,7.85
2018-12-23T09:01:08.304Z,7.86
2018-12-23T09:02:08.202Z,7.86
2018-12-23T09:03:08.253Z,7.89
2018-12-23T09:04:08.491Z,7.9
2018-12-23T09:05:08.189Z,7.88
2018-12-23T09:06:08.193Z,7.9
2018-12-23T09:07:08.346Z,7.89
2018-12-23T09:08:08.216Z,7.88
2018-12-23T09:09:08.368Z,7.9
2018-12-23T09:10:08.313Z,7.89
2018-12-23T09:11:08.154Z,7.87
2018-12-23T09:12:08.328Z,7.89
2018-12-23T09:13:08.454Z,7.9
2018-12-23T09:14:08.564Z,7.9
2018-12-23T09:15:08.999Z,7.9
2018-12-23T09:16:08.374Z,7.9
2018-12-23T09:17:08.200Z,7.91
2018-12-23T09:18:08.795Z,7.92
2018-12-23T09:19:08.280Z,7.91
2018-12-23T09:20:09.087Z,7.93
2018-12-23T09:21:08.490Z,7.94
2018-12-23T09:22:08.530Z,7.94
2018-12-23T09:23:08.474Z,7.92
2018-12-23T09:24:08.364Z,7.93
2018-12-23T09:25:08.552Z,7.91
2018-12-23T09:26:08.246Z,7.93
2018-12-23T09:27:08.195Z,7.94
2018-12-23T09:28:09.246Z,7.94
2018-12-23T09:29:08.585Z,7.94
2018-12-23T09:30:08.354Z,7.94
2018-12-23T09:31:08.172Z,7.93
2018-12-23T09:32:10.501Z,7.94
2018-12-23T09:33:08.252Z,7.95
2018-12-23T09:34:08.348Z,7.96
2018-12-23T09:35:08.997Z,7.95
2018-12-23T09:36:08.305Z,7.94
2018-12-23T09:37:08.417Z,7.95
2018-12-23T09:38:08.769Z,7.93
2018-12-23T09:39:08.256Z,7.93
2018-12-23T09:40:08.274Z,7.98
2018-12-23T09:41:08.138Z,7.98
2018-12-23T09:42:08.288Z,7.99
2018-12-23T09:43:08.416Z,7.95
2018-12-23T09:44:08.136Z,7.96
2018-12-23T09:45:08.470Z,7.97
2018-12-23T09:46:08.342Z,7.99
2018-12-23T09:47:08.210Z,7.97
2018-12-23T09:48:08.239Z,7.97
2018-12-23T09:49:08.301Z,7.98
2018-12-23T09:50:08.489Z,7.99
2018-12-23T09:51:08.447Z,7.98
2018-12-23T09:52:08.606Z,7.96
2018-12-23T09:53:08.159Z,7.97
2018-12-23T09:54:08.327Z,7.98
2018-12-23T09:55:08.422Z,7.96
2018-12-23T09:56:08.339Z,7.97
2018-12-23T09:57:08.588Z,7.97
2018-12-23T09:58:08.112Z,7.99
2018-12-23T09:59:08.383Z,7.98
2018-12-23T10:00:08.525Z,7.96
2018-12-23T10:01:08.311Z,7.96
2018-12-23T10:02:08.182Z,7.97
2018-12-23T10:03:08.174Z,7.94
2018-12-23T10:04:08.312Z,7.96
2018-12-23T10:05:08.424Z,7.95
2018-12-23T10:06:08.208Z,7.97
2018-12-23T10:07:08.167Z,7.95
2018-12-23T10:08:10.732Z,7.95
2018-12-23T10:09:08.177Z,7.97
2018-12-23T10:10:08.271Z,7.96
2018-12-23T10:11:08.154Z,7.96
2018-12-23T10:12:08.103Z,7.93
2018-12-23T10:13:08.386Z,7.94
2018-12-23T10:14:08.157Z,7.94
2018-12-23T10:15:08.404Z,7.95
2018-12-23T10:16:08.131Z,7.96
2018-12-23T10:17:08.135Z,7.96
2018-12-23T10:18:08.155Z,7.95
2018-12-23T10:19:08.190Z,7.95
2018-12-23T10:20:08.100Z,7.96
2018-12-23T10:21:10.430Z,7.99
2018-12-23T10:22:08.117Z,7.97
2018-12-23T10:23:08.236Z,7.94
2018-12-23T10:24:08.144Z,7.94
2018-12-23T10:25:08.097Z,7.94
2018-12-23T10:26:08.143Z,7.96
2018-12-23T10:27:08.128Z,7.95
2018-12-23T10:28:08.158Z,7.94
2018-12-23T10:29:08.318Z,7.92
2018-12-23T10:30:08.136Z,7.91
2018-12-23T10:31:08.178Z,7.92
2018-12-23T10:32:08.276Z,7.9
2018-12-23T10:33:08.255Z,7.88
2018-12-23T10:34:08.163Z,7.9
2018-12-23T10:35:08.330Z,7.88
2018-12-23T10:36:08.062Z,7.86
2018-12-23T10:37:08.161Z,7.88
2018-12-23T10:38:08.078Z,7.86
2018-12-23T10:39:08.430Z,7.89
2018-12-23T10:40:08.964Z,7.88
2018-12-23T10:41:08.171Z,7.89
2018-12-23T10:42:08.163Z,7.86
2018-12-23T10:43:08.461Z,7.86
2018-12-23T10:44:08.503Z,7.87
2018-12-23T10:45:08.401Z,7.86
2018-12-23T10:46:08.418Z,7.87
2018-12-23T10:47:08.210Z,7.86
2018-12-23T10:48:08.153Z,7.87
2018-12-23T10:49:08.175Z,7.87
2018-12-23T10:50:08.529Z,7.86
2018-12-23T10:51:08.208Z,7.87
2018-12-23T10:52:08.095Z,7.89
2018-12-23T10:53:08.583Z,7.88
2018-12-23T10:54:08.227Z,7.88
2018-12-23T10:55:08.325Z,7.86
2018-12-23T10:56:08.960Z,7.84
2018-12-23T10:57:08.220Z,7.87
2018-12-23T10:58:08.070Z,7.84
2018-12-23T10:59:08.250Z,7.85
2018-12-23T11:00:08.085Z,7.85
2018-12-23T11:01:08.133Z,7.89
2018-12-23T11:02:14.188Z,7.88
2018-12-23T11:03:08.058Z,7.9
2018-12-23T11:04:08.114Z,7.89
2018-12-23T11:05:08.275Z,7.88
2018-12-23T11:06:08.138Z,7.89
2018-12-23T11:07:08.585Z,7.88
2018-12-23T11:08:08.204Z,7.84
2018-12-23T11:09:08.227Z,7.86
2018-12-23T11:10:08.123Z,7.85
2018-12-23T11:11:09.185Z,7.85
2018-12-23T11:12:08.145Z,7.84
2018-12-23T11:13:08.086Z,7.86
2018-12-23T11:14:08.185Z,7.86
2018-12-23T11:15:08.229Z,7.87
2018-12-23T11:16:08.154Z,7.84
2018-12-23T11:17:08.111Z,7.86
2018-12-23T11:18:08.126Z,7.88
2018-12-23T11:19:08.307Z,7.89
2018-12-23T11:20:08.250Z,7.87
2018-12-23T11:21:08.191Z,7.85
2018-12-23T11:22:08.592Z,7.85
2018-12-23T11:23:08.424Z,7.87
2018-12-23T11:24:08.263Z,7.87
2018-12-23T11:25:07.994Z,7.85
2018-12-23T11:26:08.324Z,7.85
2018-12-23T11:27:08.220Z,7.87
2018-12-23T11:28:08.373Z,7.87
2018-12-23T11:29:08.323Z,7.88
2018-12-23T11:30:08.437Z,7.87
2018-12-23T11:31:08.173Z,7.88
2018-12-23T11:32:08.278Z,7.86
2018-12-23T11:33:08.139Z,7.87
2018-12-23T11:34:08.242Z,7.9
2018-12-23T11:35:08.082Z,7.91
2018-12-23T11:36:08.163Z,7.91
2018-12-23T11:37:08.399Z,7.89
2018-12-23T11:38:08.206Z,7.92
2018-12-23T11:39:08.097Z,7.91
2018-12-23T11:40:08.855Z,7.89
2018-12-23T11:41:08.002Z,7.87
2018-12-23T11:42:08.073Z,7.87
2018-12-23T11:43:08.383Z,7.85
2018-12-23T11:44:09.173Z,7.84
2018-12-23T11:45:08.120Z,7.83
2018-12-23T11:46:08.295Z,7.82
2018-12-23T11:47:08.888Z,7.86
2018-12-23T11:48:08.427Z,7.87
2018-12-23T11:49:08.200Z,7.88
2018-12-23T11:50:08.141Z,7.86
2018-12-23T11:51:08.132Z,7.87
2018-12-23T11:52:08.063Z,7.88
2018-12-23T11:53:07.998Z,7.87
2018-12-23T11:54:08.165Z,7.88
2018-12-23T11:55:08.075Z,7.87
2018-12-23T11:56:08.175Z,7.87
2018-12-23T11:57:08.133Z,7.87
2018-12-23T11:58:08.126Z,7.88
2018-12-23T11:59:08.111Z,7.91
2018-12-23T12:00:08.123Z,7.92
2018-12-23T12:01:08.075Z,7.95
2018-12-23T12:02:15.747Z,7.97
2018-12-23T12:03:08.115Z,8
2018-12-23T12:04:08.089Z,8
2018-12-23T12:05:07.963Z,8.02
2018-12-23T12:06:08.415Z,8.01
2018-12-23T12:07:08.064Z,8.02
2018-12-23T12:08:08.076Z,8.03
2018-12-23T12:09:07.961Z,8.03
2018-12-23T12:10:08.195Z,8.03
2018-12-23T12:11:08.036Z,8.03
2018-12-23T12:12:07.946Z,8.04
2018-12-23T12:13:08.080Z,8.04
2018-12-23T12:14:08.351Z,8.03
2018-12-23T12:15:07.987Z,8.03
2018-12-23T12:16:08.356Z,8.05
2018-12-23T12:17:08.349Z,8.04
2018-12-23T12:18:08.221Z,8.04
2018-12-23T12:19:07.925Z,8.05
2018-12-23T12:20:08.134Z,8.04
2018-12-23T12:21:07.898Z,8.07
2018-12-23T12:22:07.928Z,8.05
2018-12-23T12:23:08.125Z,8.05
2018-12-23T12:24:08.424Z,8.07
2018-12-23T12:25:07.953Z,8.07
2018-12-23T12:26:08.112Z,8.07
2018-12-23T12:27:08.066Z,8.09
2018-12-23T12:28:08.224Z,8.07
2018-12-23T12:29:08.185Z,8.09
2018-12-23T12:30:08.132Z,8.09
2018-12-23T12:31:07.940Z,8.09
2018-12-23T12:32:08.580Z,8.11
2018-12-23T12:33:08.328Z,8.14
2018-12-23T12:34:08.151Z,8.12
2018-12-23T12:35:08.277Z,8.1
2018-12-23T12:36:08.128Z,8.12
2018-12-23T12:37:08.103Z,8.1
2018-12-23T12:38:08.295Z,8.11
2018-12-23T12:39:08.201Z,8.13
2018-12-23T12:40:07.935Z,8.13
2018-12-23T12:41:08.218Z,8.11
2018-12-23T12:42:08.257Z,8.13
2018-12-23T12:43:08.093Z,8.14
2018-12-23T12:44:08.193Z,8.12
2018-12-23T12:45:08.186Z,8.13
2018-12-23T12:46:08.185Z,8.13
2018-12-23T12:47:08.096Z,8.13
2018-12-23T12:48:08.204Z,8.14
2018-12-23T12:49:08.753Z,8.14
2018-12-23T12:50:08.214Z,8.16
2018-12-23T12:51:08.103Z,8.16
2018-12-23T12:52:08.027Z,8.15
2018-12-23T12:53:07.926Z,8.15
2018-12-23T12:54:08.055Z,8.16
2018-12-23T12:55:08.264Z,8.16
2018-12-23T12:56:08.206Z,8.16
2018-12-23T12:57:08.175Z,8.15
2018-12-23T12:58:07.917Z,8.15
2018-12-23T12:59:08.142Z,8.17
2018-12-23T13:00:07.892Z,8.19
2018-12-23T13:01:08.133Z,8.17
2018-12-23T13:02:08.726Z,8.19
2018-12-23T13:03:08.141Z,8.18
2018-12-23T13:04:07.924Z,8.16
2018-12-23T13:05:08.066Z,8.17
2018-12-23T13:06:08.178Z,8.16
2018-12-23T13:07:08.081Z,8.15
2018-12-23T13:08:08.064Z,8.18
2018-12-23T13:09:08.209Z,8.17
2018-12-23T13:10:08.084Z,8.17
2018-12-23T13:11:07.883Z,8.19
2018-12-23T13:12:07.880Z,8.17
2018-12-23T13:13:08.294Z,8.19
2018-12-23T13:14:08.301Z,8.17
2018-12-23T13:15:09.522Z,8.18
2018-12-23T13:16:07.907Z,8.18
2018-12-23T13:17:08.055Z,8.21
2018-12-23T13:18:08.337Z,8.21
2018-12-23T13:19:08.735Z,8.21
2018-12-23T13:20:08.058Z,8.2
2018-12-23T13:21:07.871Z,8.22
2018-12-23T13:22:08.089Z,8.24
2018-12-23T13:23:08.060Z,8.21
2018-12-23T13:24:07.890Z,8.23
2018-12-23T13:25:07.987Z,8.23
2018-12-23T13:26:08.114Z,8.23
2018-12-23T13:27:07.906Z,8.2
2018-12-23T13:28:08.111Z,8.22
2018-12-23T13:29:08.028Z,8.21
2018-12-23T13:30:08.126Z,8.2
2018-12-23T13:31:08.014Z,8.2
2018-12-23T13:32:08.042Z,8.23
2018-12-23T13:33:07.916Z,8.25
2018-12-23T13:34:07.905Z,8.21
2018-12-23T13:35:07.956Z,8.22
2018-12-23T13:36:08.017Z,8.28
2018-12-23T13:37:08.218Z,8.26